Time;durP1;ratioP1;P1;durP2;ratioP2;P2;SDS_P1;SDS_P2;PMS_P1;PMS_P2;Temp;Humidity;BMP_temperature;BMP_pressure;BME280_temperature;BME280_humidity;BME280_pressure;Samples;Min_cycle;Max_cycle;Signal;HPM_P1;HPM_P2
2022/12/19 00:00:44;;;;;;;2.15;1.95;;;;;;;-5.31;78.80;101794.28;5116836;28;20044;-66
2022/12/19 00:03:14;;;;;;;;;;;;;;;-5.32;79.28;101782.56;5117520;28;20548;-65
2022/12/19 00:05:43;;;;;;;2.53;2.35;;;;;;;-5.28;78.95;101779.66;5116941;27;19920;-66
2022/12/19 00:08:16;;;;;;;6.20;2.10;;;;;;;-5.23;78.96;101779.34;5115755;28;20077;-66
2022/12/19 00:10:55;;;;;;;2.30;2.17;;;;;;;-5.21;79.13;101767.06;5116674;28;20058;-66
2022/12/19 00:13:24;;;;;;;1.35;1.23;;;;;;;-5.26;79.54;101770.72;5116555;28;20043;-65
2022/12/19 00:15:53;;;;;;;2.42;2.00;;;;;;;-5.23;78.80;101778.47;5116932;28;20036;-67
2022/12/19 00:18:23;;;;;;;5.15;4.75;;;;;;;-5.26;78.88;101770.72;5116837;28;20039;-66
2022/12/19 00:20:56;;;;;;;5.15;4.72;;;;;;;-5.35;78.80;101762.38;5116733;28;20051;-66
2022/12/19 00:23:25;;;;;;;1.63;1.52;;;;;;;-5.40;78.99;101768.53;5116497;28;20140;-65
2022/12/19 00:25:54;;;;;;;3.00;2.80;;;;;;;-5.50;79.02;101767.66;5116417;27;20035;-66
2022/12/19 00:28:23;;;;;;;4.37;2.63;;;;;;;-5.51;79.22;101765.88;5116368;28;20038;-65
2022/12/19 00:30:51;;;;;;;1.75;1.63;;;;;;;-5.48;79.39;101766.19;5116262;28;20284;-66
2022/12/19 00:33:25;;;;;;;5.70;4.82;;;;;;;-5.44;79.15;101772.31;5116147;28;20050;-66
2022/12/19 00:35:57;;;;;;;2.92;2.72;;;;;;;-5.53;79.23;101767.34;5118249;28;20122;-68
2022/12/19 00:38:26;;;;;;;1.10;1.10;;;;;;;-5.61;79.10;101758.28;5117295;28;20043;-65
2022/12/19 00:40:55;;;;;;;4.78;4.10;;;;;;;-5.52;79.59;101769.09;5114844;28;20071;-66
2022/12/19 00:43:24;;;;;;;4.10;3.80;;;;;;;-5.40;79.52;101766.03;5116029;28;20513;-66
2022/12/19 00:45:52;;;;;;;5.03;3.90;;;;;;;-5.37;79.34;101767.19;5114865;28;20046;-66
2022/12/19 00:48:21;;;;;;;2.45;2.25;;;;;;;-5.36;79.37;101775.53;5114380;28;20038;-66
2022/12/19 00:50:59;;;;;;;2.33;2.23;;;;;;;-5.26;79.60;101778.19;5114714;28;20079;-65
2022/12/19 00:53:28;;;;;;;2.15;2.05;;;;;;;-5.22;79.85;101775.25;5115830;28;20292;-66
2022/12/19 00:56:02;;;;;;;2.97;2.78;;;;;;;-5.17;79.98;101774.06;5116129;28;20040;-66
2022/12/19 00:58:31;;;;;;;0.65;0.65;;;;;;;-5.11;80.05;101784.63;5116528;28;20081;-67
2022/12/19 01:01:06;;;;;;;1.02;1.02;;;;;;;-5.07;79.46;101782.56;5115479;28;20059;-66
2022/12/19 01:03:36;;;;;;;0.75;0.75;;;;;;;-4.99;79.97;101785.78;5115794;28;20065;-65
2022/12/19 01:06:06;;;;;;;4.10;3.72;;;;;;;-5.02;79.86;101781.38;5114390;28;20044;-66
2022/12/19 01:08:36;;;;;;;1.75;1.70;;;;;;;-5.00;80.08;101779.91;5114421;28;20051;-66
2022/12/19 01:11:05;;;;;;;0.67;0.67;;;;;;;-4.99;80.23;101780.78;5115820;28;20115;-66
2022/12/19 01:13:34;;;;;;;3.00;2.80;;;;;;;-4.98;79.57;101777.56;5115685;28;20650;-65
2022/12/19 01:16:11;;;;;;;2.50;2.30;;;;;;;-4.96;79.93;101778.56;5115503;28;20040;-66
2022/12/19 01:18:40;;;;;;;2.35;2.15;;;;;;;-4.89;79.72;101779.28;5115730;28;20051;-65
2022/12/19 01:21:11;;;;;;;2.72;1.10;;;;;;;-4.91;79.96;101769.94;5115327;28;20560;-66
2022/12/19 01:23:40;;;;;;;1.50;1.45;;;;;;;-4.86;79.72;101771.22;5115337;28;20048;-66
2022/12/19 01:26:09;;;;;;;4.53;2.95;;;;;;;-4.87;80.17;101776.97;5115213;28;20478;-66
2022/12/19 01:28:37;;;;;;;13.88;5.85;;;;;;;-4.80;80.21;101779.28;5115217;28;20069;-66
2022/12/19 01:31:06;;;;;;;1.23;1.20;;;;;;;-4.71;80.01;101770.19;5115566;27;20096;-66
2022/12/19 01:33:38;;;;;;;2.53;2.33;;;;;;;-4.64;79.90;101761.66;5115039;28;20105;-66
2022/12/19 01:36:10;;;;;;;2.05;1.83;;;;;;;-4.61;79.92;101761.94;5115316;28;20117;-66
2022/12/19 01:38:39;;;;;;;8.15;3.35;;;;;;;-4.58;80.25;101763.09;5115343;28;20050;-67
2022/12/19 01:41:08;;;;;;;1.35;1.25;;;;;;;-4.53;79.96;101751.94;5113715;28;20035;-66
2022/12/19 01:43:56;;;;;;;1.13;1.08;;;;;;;-4.51;79.77;101757.06;5115005;28;20397;-66
2022/12/19 01:46:31;;;;;;;2.03;1.80;;;;;;;-4.48;79.87;101753.22;5114772;28;20088;-66
2022/12/19 01:49:02;;;;;;;4.97;4.57;;;;;;;-4.46;79.95;101744.28;5114549;28;20061;-66
2022/12/19 01:51:39;;;;;;;12.00;3.63;;;;;;;-4.51;80.16;101740.50;5115154;28;20057;-65
2022/12/19 01:54:10;;;;;;;2.35;2.15;;;;;;;-4.38;80.35;101752.47;5114677;28;20043;-66
2022/12/19 01:56:43;;;;;;;0.70;0.70;;;;;;;-4.33;79.89;101767.09;5115051;28;20039;-66
2022/12/19 01:59:17;;;;;;;1.17;1.10;;;;;;;-4.28;80.17;101765.91;5116021;28;20064;-67
2022/12/19 02:01:46;;;;;;;1.00;1.00;;;;;;;-4.29;80.40;101749.19;5116310;28;20055;-66
2022/12/19 02:04:25;;;;;;;5.28;3.03;;;;;;;-4.23;80.56;101743.88;5114581;28;20076;-66
2022/12/19 02:07:02;;;;;;;1.92;1.83;;;;;;;-4.20;79.95;101752.50;5114400;28;20084;-66
2022/12/19 02:09:45;;;;;;;3.25;2.95;;;;;;;-4.23;80.29;101742.28;5114984;28;20040;-66
2022/12/19 02:12:14;;;;;;;3.38;3.08;;;;;;;-4.16;80.01;101739.59;5114625;28;20475;-66
2022/12/19 02:14:43;;;;;;;3.20;3.00;;;;;;;-4.14;80.57;101745.59;5113091;28;20038;-66
2022/12/19 02:17:20;;;;;;;2.13;2.03;;;;;;;-4.10;80.32;101752.59;5114227;28;20044;-67
2022/12/19 02:20:22;;;;;;;5.47;5.05;;;;;;;-4.05;80.08;101754.66;5114248;28;20058;-66
2022/12/19 02:23:10;;;;;;;3.42;3.13;;;;;;;-4.01;80.02;101744.22;5114478;28;20134;-66
2022/12/19 02:26:06;;;;;;;2.45;2.35;;;;;;;-3.98;80.26;101742.84;5113057;28;20130;-66
2022/12/19 02:28:54;;;;;;;1.70;1.60;;;;;;;-3.91;80.30;101744.28;5112817;28;20032;-65
2022/12/19 02:31:31;;;;;;;12.00;6.60;;;;;;;-3.87;80.33;101741.31;5112979;28;20047;-66
2022/12/19 02:34:10;;;;;;;0.80;0.80;;;;;;;-3.85;79.93;101734.84;5114338;28;20051;-66
2022/12/19 02:36:50;;;;;;;6.75;1.88;;;;;;;-3.83;80.13;101731.75;5114123;28;20534;-66
2022/12/19 02:39:28;;;;;;;2.05;1.95;;;;;;;-3.85;79.95;101714.91;5114344;28;20116;-66
2022/12/19 02:42:04;;;;;;;1.73;1.63;;;;;;;-3.79;79.57;101718.81;5113156;28;20054;-66
2022/12/19 02:44:39;;;;;;;5.40;4.97;;;;;;;-3.75;79.86;101713.38;5112743;28;20051;-66
2022/12/19 02:47:11;;;;;;;1.23;1.20;;;;;;;-3.77;79.97;101713.97;5113868;28;20050;-66
2022/12/19 02:49:40;;;;;;;0.95;0.93;;;;;;;-3.73;80.33;101703.50;5112505;28;20078;-65
2022/12/19 02:52:10;;;;;;;8.77;3.58;;;;;;;-3.69;79.99;101708.00;5112700;28;20063;-66
2022/12/19 02:54:39;;;;;;;2.97;2.78;;;;;;;-3.67;79.76;101701.56;5112699;28;20032;-66
2022/12/19 02:57:24;;;;;;;1.48;1.38;;;;;;;-3.66;79.82;101715.78;5113733;28;20138;-66
2022/12/19 03:00:03;;;;;;;2.70;2.08;;;;;;;-3.63;80.05;101716.06;5113756;28;20075;-66
2022/12/19 03:02:43;;;;;;;3.03;2.83;;;;;;;-3.64;80.13;101714.28;5112623;28;20052;-66
2022/12/19 03:05:29;;;;;;;3.38;3.17;;;;;;;-3.66;80.10;101713.28;5113705;28;20067;-66
2022/12/19 03:08:07;;;;;;;4.82;4.43;;;;;;;-3.64;80.28;101701.81;5113677;28;20071;-66
2022/12/19 03:10:43;;;;;;;7.53;2.05;;;;;;;-3.66;80.05;101706.69;5114437;28;20048;-65
2022/12/19 03:13:19;;;;;;;16.27;2.75;;;;;;;-3.68;80.21;101715.66;5118092;28;20047;-65
2022/12/19 03:15:49;;;;;;;0.82;0.68;;;;;;;-3.68;80.46;101714.78;5117854;28;20139;-66
2022/12/19 03:18:20;;;;;;;3.45;3.25;;;;;;;-3.66;80.54;101718.28;5116621;28;20039;-66
2022/12/19 03:20:53;;;;;;;8.82;3.08;;;;;;;-3.67;80.09;101716.53;5117624;28;20074;-66
2022/12/19 03:23:21;;;;;;;3.83;1.98;;;;;;;-3.66;80.56;101713.28;5118099;28;20051;-66
2022/12/19 03:25:55;;;;;;;4.23;2.23;;;;;;;-3.60;80.17;101718.81;5117901;28;20126;-67
2022/12/19 03:28:30;;;;;;;0.77;0.77;;;;;;;-3.61;80.31;101707.09;5117573;28;20048;-66
2022/12/19 03:31:00;;;;;;;0.93;0.93;;;;;;;-3.58;80.84;101712.34;5117395;28;20058;-66
2022/12/19 03:33:34;;;;;;;1.17;1.08;;;;;;;-3.52;80.97;101717.84;5117352;28;20474;-66
2022/12/19 03:36:08;;;;;;;1.42;1.17;;;;;;;-3.54;80.34;101709.38;5117746;28;20065;-66
2022/12/19 03:38:39;;;;;;;1.38;1.17;;;;;;;-3.54;80.46;101712.75;5117604;28;20071;-66
2022/12/19 03:41:11;;;;;;;2.53;2.33;;;;;;;-3.49;80.52;101713.13;5117286;28;20055;-66
2022/12/19 03:43:42;;;;;;;1.80;1.70;;;;;;;-3.55;80.58;101715.13;5117342;28;20036;-66
2022/12/19 03:46:15;;;;;;;2.38;2.22;;;;;;;-3.56;80.73;101725.81;5117487;28;20454;-66
2022/12/19 03:48:47;;;;;;;2.35;2.15;;;;;;;-3.56;81.04;101726.72;5116953;28;20051;-65
2022/12/19 03:51:26;;;;;;;7.22;3.72;;;;;;;-3.49;80.86;101723.13;5117391;28;20050;-67
2022/12/19 03:54:01;;;;;;;3.30;2.92;;;;;;;-3.47;80.56;101725.00;5117077;27;20097;-67
2022/12/19 03:56:37;;;;;;;2.58;1.73;;;;;;;-3.45;80.56;101720.13;5116984;28;20044;-67
2022/12/19 03:59:10;;;;;;;2.17;2.08;;;;;;;-3.48;80.70;101719.91;5117300;28;20063;-66
2022/12/19 04:01:41;;;;;;;2.45;2.25;;;;;;;-3.48;81.27;101717.41;5117220;28;20512;-66
2022/12/19 04:04:13;;;;;;;0.45;0.45;;;;;;;-3.44;81.14;101716.91;5117332;28;20063;-66
2022/12/19 04:06:45;;;;;;;1.38;1.33;;;;;;;-3.46;80.94;101710.91;5116775;28;20047;-66
2022/12/19 04:09:14;;;;;;;3.60;3.38;;;;;;;-3.47;81.07;101706.66;5116839;28;20560;-66
2022/12/19 04:11:54;;;;;;;3.45;1.65;;;;;;;-3.43;81.54;101709.56;5116770;28;20079;-66
2022/12/19 04:14:28;;;;;;;4.10;2.95;;;;;;;-3.42;81.03;101706.31;5116635;28;20497;-66
2022/12/19 04:17:05;;;;;;;2.67;2.50;;;;;;;-3.44;81.37;101701.94;5116749;28;20043;-66
2022/12/19 04:19:42;;;;;;;0.85;0.85;;;;;;;-3.41;81.29;101697.22;5116615;28;20573;-66
2022/12/19 04:22:16;;;;;;;2.10;2.00;;;;;;;-3.40;81.11;101703.94;5116007;28;20067;-66
2022/12/19 04:24:48;;;;;;;2.55;2.35;;;;;;;-3.37;81.78;101704.22;5116387;28;20044;-66
2022/12/19 04:27:18;;;;;;;1.70;1.60;;;;;;;-3.40;81.56;101693.97;5116734;28;20401;-66
2022/12/19 04:29:51;;;;;;;0.88;0.88;;;;;;;-3.38;81.61;101702.47;5116405;28;20051;-66
2022/12/19 04:32:21;;;;;;;2.20;2.05;;;;;;;-3.35;80.96;101705.22;5116298;28;20096;-66
2022/12/19 04:34:51;;;;;;;1.83;1.73;;;;;;;-3.35;81.34;101707.72;5116368;28;20050;-66
2022/12/19 04:37:20;;;;;;;2.30;2.15;;;;;;;-3.35;81.77;101707.72;5116393;28;20036;-66
2022/12/19 04:39:48;;;;;;;1.23;1.13;;;;;;;-3.34;81.75;101714.47;5116173;28;20490;-66
2022/12/19 04:42:17;;;;;;;2.40;2.27;;;;;;;-3.33;81.59;101706.22;5116450;28;20493;-66
2022/12/19 04:44:46;;;;;;;0.60;0.60;;;;;;;-3.35;81.35;101701.84;5115959;28;20040;-66
2022/12/19 04:47:14;;;;;;;4.13;1.55;;;;;;;-3.38;81.37;101698.34;5116590;28;20039;-66
2022/12/19 04:49:43;;;;;;;2.55;2.35;;;;;;;-3.35;81.37;101702.72;5115963;28;20050;-67
2022/12/19 04:52:13;;;;;;;4.13;2.80;;;;;;;-3.33;81.68;101693.75;5115831;28;20040;-66
2022/12/19 04:54:41;;;;;;;2.15;1.83;;;;;;;-3.35;81.49;101700.25;5116156;28;20382;-66
2022/12/19 04:57:10;;;;;;;5.60;3.22;;;;;;;-3.35;81.99;101697.75;5116053;28;20087;-67
2022/12/19 04:59:38;;;;;;;2.67;2.47;;;;;;;-3.33;82.25;101695.38;5116291;28;20031;-66
2022/12/19 05:02:07;;;;;;;2.33;2.22;;;;;;;-3.35;82.17;101697.75;5115671;28;20044;-66
2022/12/19 05:04:36;;;;;;;1.88;1.77;;;;;;;-3.31;81.88;101693.91;5115675;28;20145;-66
2022/12/19 05:07:04;;;;;;;3.25;2.95;;;;;;;-3.33;81.73;101695.38;5115892;28;20039;-66
2022/12/19 05:09:34;;;;;;;1.83;1.73;;;;;;;-3.33;82.26;101690.38;5115623;28;20040;-66
2022/12/19 05:12:03;;;;;;;4.60;4.20;;;;;;;-3.32;82.09;101693.03;5115458;28;20040;-66
2022/12/19 05:14:32;;;;;;;2.57;2.37;;;;;;;-3.32;82.43;101678.03;5115759;28;20039;-66
2022/12/19 05:17:01;;;;;;;2.85;2.65;;;;;;;-3.28;81.81;101669.19;5115552;28;20088;-66
2022/12/19 05:19:29;;;;;;;15.15;2.80;;;;;;;-3.24;82.12;101677.09;5115601;28;20040;-66
2022/12/19 05:21:59;;;;;;;1.38;1.27;;;;;;;-3.24;82.31;101676.22;5115263;28;20036;-66
2022/12/19 05:24:28;;;;;;;1.75;1.63;;;;;;;-3.26;82.08;101676.06;5115553;28;20040;-66
2022/12/19 05:26:58;;;;;;;0.70;0.70;;;;;;;-3.27;82.11;101686.81;5115136;28;20498;-66
2022/12/19 05:29:26;;;;;;;2.08;1.80;;;;;;;-3.25;82.20;101685.31;5115498;28;20044;-66
2022/12/19 05:31:55;;;;;;;2.97;2.78;;;;;;;-3.24;82.49;101681.19;5115481;28;20047;-66
2022/12/19 05:34:24;;;;;;;2.73;2.53;;;;;;;-3.23;82.32;101685.44;5114244;28;20423;-66
2022/12/19 05:36:53;;;;;;;1.00;1.00;;;;;;;-3.24;82.12;101694.56;5114863;28;20043;-66
2022/12/19 05:39:21;;;;;;;0.88;0.88;;;;;;;-3.18;82.57;101692.59;5115030;28;20088;-66
2022/12/19 05:41:50;;;;;;;1.90;1.80;;;;;;;-3.17;82.75;101699.34;5114961;28;20036;-67
2022/12/19 05:44:20;;;;;;;1.60;1.50;;;;;;;-3.14;82.33;101694.59;5114849;28;20515;-66
2022/12/19 05:46:48;;;;;;;2.45;2.25;;;;;;;-3.15;82.36;101686.97;5114862;28;20130;-66
2022/12/19 05:49:17;;;;;;;2.42;2.22;;;;;;;-3.18;82.70;101686.69;5114708;28;20464;-66
2022/12/19 05:51:46;;;;;;;1.87;1.77;;;;;;;-3.17;82.99;101694.34;5115014;28;20505;-66
2022/12/19 05:54:14;;;;;;;3.60;2.65;;;;;;;-3.21;82.64;101692.31;5114501;28;20291;-66
2022/12/19 05:56:43;;;;;;;1.92;1.83;;;;;;;-3.18;82.73;101684.22;5114444;28;20032;-66
2022/12/19 05:59:12;;;;;;;2.00;1.90;;;;;;;-3.17;82.65;101679.38;5114637;28;20071;-67
2022/12/19 06:01:42;;;;;;;2.85;2.65;;;;;;;-3.17;82.91;101668.50;5114911;28;20036;-66
2022/12/19 06:04:11;;;;;;;2.85;2.05;;;;;;;-3.16;83.35;101666.13;5114570;28;20039;-66
2022/12/19 06:06:40;;;;;;;3.80;2.95;;;;;;;-3.13;82.81;101665.50;5114762;28;20459;-66
2022/12/19 06:09:09;;;;;;;2.53;2.37;;;;;;;-3.11;83.34;101669.88;5114644;28;20040;-67
2022/12/19 06:11:37;;;;;;;2.72;2.50;;;;;;;-3.13;82.88;101676.38;5114410;28;20273;-67
2022/12/19 06:14:06;;;;;;;1.73;1.63;;;;;;;-3.13;83.18;101671.38;5114658;28;20039;-66
2022/12/19 06:16:34;;;;;;;3.13;2.53;;;;;;;-3.12;83.33;101670.63;5114434;28;20043;-67
2022/12/19 06:19:04;;;;;;;0.80;0.80;;;;;;;-3.08;83.01;101685.13;5114219;28;20061;-66
2022/12/19 06:21:33;;;;;;;4.88;2.53;;;;;;;-3.10;83.28;101681.63;5114633;28;20052;-66
2022/12/19 06:24:01;;;;;;;2.33;2.23;;;;;;;-3.12;83.13;101687.25;5114189;28;20066;-66
2022/12/19 06:26:30;;;;;;;8.77;3.30;;;;;;;-3.13;83.47;101687.97;5114095;28;20147;-66
2022/12/19 06:28:59;;;;;;;3.33;3.10;;;;;;;-3.18;83.20;101671.72;5113986;28;20040;-66
2022/12/19 06:31:28;;;;;;;3.53;3.28;;;;;;;-3.07;83.46;101683.53;5113979;28;20044;-66
2022/12/19 06:33:56;;;;;;;5.90;3.65;;;;;;;-2.94;83.66;101683.78;5114013;28;20382;-67
2022/12/19 06:36:29;;;;;;;6.60;2.38;;;;;;;-2.90;83.76;101669.19;5113952;28;20131;-66
2022/12/19 06:38:58;;;;;;;4.22;3.58;;;;;;;-2.86;83.36;101683.72;5113859;28;20547;-67
2022/12/19 06:44:11;;;;;;;4.85;3.55;;;;;;;-2.56;83.46;101689.50;5114136;28;20039;-66
2022/12/19 06:46:40;;;;;;;1.08;0.98;;;;;;;-2.43;83.71;101689.78;5113911;28;20054;-66
2022/12/19 06:49:10;;;;;;;1.58;1.48;;;;;;;-2.32;83.70;101686.53;5113755;28;20066;-66
2022/12/19 06:51:40;;;;;;;2.50;2.38;;;;;;;-2.20;83.87;101680.03;5113692;28;20124;-66
2022/12/19 06:54:12;;;;;;;0.88;0.88;;;;;;;-2.03;83.98;101677.28;5114101;28;20497;-66
2022/12/19 06:56:42;;;;;;;3.92;3.63;;;;;;;-1.90;83.96;101671.66;5113539;28;20039;-66
2022/12/19 06:59:13;;;;;;;1.60;1.50;;;;;;;-1.82;83.80;101668.97;5114099;28;20073;-66
2022/12/19 07:01:57;;;;;;;4.47;3.97;;;;;;;-1.68;84.32;101685.97;5113660;28;20036;-66
2022/12/19 07:04:31;;;;;;;1.60;1.50;;;;;;;-1.55;83.62;101701.22;5113719;28;20212;-66
2022/12/19 07:07:01;;;;;;;5.57;3.60;;;;;;;-1.48;83.68;101698.47;5113765;28;20042;-67
2022/12/19 07:09:31;;;;;;;2.78;2.58;;;;;;;-1.51;83.56;101693.19;5113951;28;20047;-67
2022/12/19 07:11:59;;;;;;;;;;;;;;;-1.40;83.40;101702.44;5114404;28;20040;-67
2022/12/19 07:14:27;;;;;;;1.52;1.42;;;;;;;-1.32;83.63;101698.03;5113569;28;19926;-66
2022/12/19 07:17:00;;;;;;;6.40;3.05;;;;;;;-1.25;83.34;101699.41;5113340;28;20131;-67
2022/12/19 07:19:31;;;;;;;1.67;1.58;;;;;;;-1.15;83.27;101711.88;5113879;28;20105;-67
2022/12/19 07:22:03;;;;;;;8.07;3.55;;;;;;;-1.08;83.10;101704.09;5113525;28;20047;-66
2022/12/19 07:24:34;;;;;;;4.38;3.72;;;;;;;-0.89;82.92;101709.78;5113619;28;20058;-67
2022/12/19 07:27:03;;;;;;;0.98;0.98;;;;;;;-0.66;82.70;101699.84;5113700;28;20406;-67
2022/12/19 07:29:33;;;;;;;1.00;1.00;;;;;;;-0.51;82.47;101700.16;5113534;28;20076;-66
2022/12/19 07:32:01;;;;;;;1.17;0.88;;;;;;;-0.47;82.27;101692.97;5113274;28;20497;-67
2022/12/19 07:34:30;;;;;;;2.13;2.00;;;;;;;-0.45;81.57;101696.47;5113480;28;20036;-66
2022/12/19 07:37:01;;;;;;;3.00;2.75;;;;;;;-0.42;81.30;101695.81;5113135;28;20043;-67
2022/12/19 07:39:30;;;;;;;3.35;3.05;;;;;;;-0.37;80.90;101700.44;5113334;28;20046;-66
2022/12/19 07:41:58;;;;;;;4.50;4.10;;;;;;;-0.29;81.22;101701.84;5109837;28;20043;-67
2022/12/19 07:44:33;;;;;;;2.15;2.05;;;;;;;-0.23;80.54;101704.84;5092927;28;20461;-66
2022/12/19 07:47:01;;;;;;;3.33;2.53;;;;;;;-0.17;80.22;101700.25;5093133;28;20036;-66
2022/12/19 07:49:30;;;;;;;0.88;0.82;;;;;;;-0.13;79.94;101691.34;5092827;28;20083;-66
2022/12/19 07:51:59;;;;;;;0.98;0.95;;;;;;;-0.13;79.94;101692.22;5092912;28;20563;-66
2022/12/19 07:54:28;;;;;;;3.05;2.85;;;;;;;-0.08;79.48;101703.47;5106221;28;20051;-66
2022/12/19 07:56:57;;;;;;;2.40;1.27;;;;;;;-0.02;79.32;101706.41;5107523;28;20059;-66
2022/12/19 07:59:26;;;;;;;5.20;4.80;;;;;;;0.00;79.47;101714.91;5111286;28;20122;-66
2022/12/19 08:02:03;;;;;;;2.55;1.65;;;;;;;-0.01;78.91;101715.69;5116441;28;20067;-66
2022/12/19 08:04:32;;;;;;;2.20;2.08;;;;;;;0.04;79.21;101720.19;5096154;28;20111;-65
2022/12/19 08:07:01;;;;;;;3.03;1.77;;;;;;;0.04;78.82;101715.16;5096290;28;20036;-66
2022/12/19 08:09:31;;;;;;;1.48;1.38;;;;;;;0.00;78.84;101714.91;5096078;28;20040;-67
2022/12/19 08:12:00;;;;;;;7.13;2.92;;;;;;;-0.03;78.90;101714.72;5096244;28;20379;-66
2022/12/19 08:14:28;;;;;;;2.15;1.60;;;;;;;-0.06;78.26;101714.50;5096221;28;20036;-67
2022/12/19 08:16:57;;;;;;;1.73;1.63;;;;;;;-0.11;78.66;101720.78;5096212;28;20436;-66
2022/12/19 08:19:46;;;;;;;3.17;2.33;;;;;;;-0.17;78.31;101720.31;5096519;28;20047;-66
2022/12/19 08:22:15;;;;;;;0.50;0.50;;;;;;;-0.20;78.59;101712.59;5096079;28;20050;-66
2022/12/19 08:24:45;;;;;;;1.38;1.27;;;;;;;-0.17;78.89;101714.47;5096089;28;20040;-66
2022/12/19 08:27:16;;;;;;;3.60;2.38;;;;;;;-0.17;78.73;101714.47;5096047;28;20051;-66
2022/12/19 08:29:44;;;;;;;0.80;0.80;;;;;;;-0.13;78.57;101721.44;5096039;28;20052;-65
2022/12/19 08:32:15;;;;;;;0.80;0.80;;;;;;;-0.11;78.43;101720.78;5095858;28;20055;-66
2022/12/19 08:34:49;;;;;;;5.97;0.95;;;;;;;-0.07;78.79;101711.84;5096092;28;20050;-65
2022/12/19 08:37:18;;;;;;;1.45;1.35;;;;;;;-0.04;78.05;101707.06;5095487;28;20044;-66
2022/12/19 08:39:48;;;;;;;1.35;1.25;;;;;;;0.00;78.49;101714.91;5096029;28;20040;-66
2022/12/19 08:42:16;;;;;;;5.63;4.22;;;;;;;0.02;78.16;101717.56;5095611;28;20048;-66
2022/12/19 08:44:45;;;;;;;1.07;1.03;;;;;;;0.05;77.75;101716.91;5094942;28;20032;-65
2022/12/19 08:47:13;;;;;;;1.40;1.30;;;;;;;0.09;77.40;101728.91;5095504;28;20079;-66
2022/12/19 08:49:42;;;;;;;1.38;1.27;;;;;;;0.11;77.30;101724.88;5095359;28;20131;-66
2022/12/19 08:52:11;;;;;;;2.13;1.92;;;;;;;0.08;77.00;101712.09;5095751;28;20047;-66
2022/12/19 08:54:39;;;;;;;2.78;2.13;;;;;;;0.11;76.82;101714.84;5095719;28;20156;-66
2022/12/19 08:57:09;;;;;;;1.48;1.38;;;;;;;0.11;76.79;101717.34;5094340;28;20048;-66
2022/12/19 08:59:38;;;;;;;1.52;1.42;;;;;;;0.11;77.04;101717.34;5108236;28;20070;-66
2022/12/19 09:02:09;;;;;;;;;;;;;;;0.13;76.65;101720.84;5116416;28;20044;-66
2022/12/19 09:04:39;;;;;;;3.33;3.03;;;;;;;0.10;76.91;101725.66;5103743;28;19931;-66
2022/12/19 09:07:28;;;;;;;1.35;1.27;;;;;;;0.09;76.83;101723.91;5098579;28;20036;-68
2022/12/19 09:09:56;;;;;;;2.15;2.05;;;;;;;0.11;76.61;101713.22;5095425;28;20044;-66
2022/12/19 09:12:27;;;;;;;0.57;0.57;;;;;;;0.10;77.02;101713.13;5095513;28;20115;-66
2022/12/19 09:14:56;;;;;;;5.38;3.25;;;;;;;0.10;76.78;101703.06;5105374;28;20501;-66
2022/12/19 09:17:24;;;;;;;2.85;1.73;;;;;;;0.15;76.86;101715.16;5095350;28;20431;-66
2022/12/19 09:19:53;;;;;;;0.80;0.80;;;;;;;0.23;76.46;101703.19;5095095;28;20043;-67
2022/12/19 09:22:22;;;;;;;0.70;0.70;;;;;;;0.20;76.94;101702.94;5095244;28;20367;-66
2022/12/19 09:24:56;;;;;;;1.75;1.60;;;;;;;0.20;76.56;101706.34;5093651;28;20072;-67
2022/12/19 09:27:25;;;;;;;6.60;2.95;;;;;;;0.23;76.68;101718.25;5095107;28;20143;-66
2022/12/19 09:29:55;;;;;;;2.08;1.98;;;;;;;0.20;76.93;101718.00;5094854;28;20050;-67
2022/12/19 09:32:23;;;;;;;2.08;1.98;;;;;;;0.22;76.25;101711.47;5103808;28;20039;-66
2022/12/19 09:34:52;;;;;;;1.42;1.35;;;;;;;0.27;76.53;101710.16;5114972;28;20063;-66
2022/12/19 09:37:21;;;;;;;2.72;2.53;;;;;;;0.23;75.98;101711.59;5114803;28;20096;-66
2022/12/19 09:39:49;;;;;;;2.50;2.35;;;;;;;0.20;75.58;101708.84;5115371;28;20058;-67
2022/12/19 09:42:38;;;;;;;1.02;1.02;;;;;;;0.20;75.75;101718.00;5114968;28;20049;-65
2022/12/19 09:45:37;;;;;;;3.13;2.67;;;;;;;0.17;75.74;101708.63;5115105;28;20130;-67
2022/12/19 09:48:12;;;;;;;1.52;1.42;;;;;;;0.18;75.74;101710.38;5078773;28;20040;-66
2022/12/19 09:50:56;;;;;;;2.65;1.70;;;;;;;0.20;75.43;101708.84;5115282;28;20405;-66
2022/12/19 09:53:52;;;;;;;5.00;2.38;;;;;;;0.22;76.02;101706.44;5109292;28;20048;-68
2022/12/19 09:56:34;;;;;;;5.50;4.38;;;;;;;0.18;75.38;101701.97;5113311;28;20088;-66
2022/12/19 09:59:19;;;;;;;2.78;2.58;;;;;;;0.12;75.67;101699.03;5095157;28;20036;-66
2022/12/19 10:02:01;;;;;;;1.52;1.45;;;;;;;0.14;75.84;101702.53;5094210;28;20490;-66
2022/12/19 10:04:35;;;;;;;1.38;1.27;;;;;;;0.13;75.61;101701.66;5094236;28;20044;-66
2022/12/19 10:07:08;;;;;;;1.55;1.45;;;;;;;0.10;75.94;101693.88;5094039;28;20098;-66
2022/12/19 10:09:58;;;;;;;1.92;1.75;;;;;;;0.12;75.74;101694.00;5094115;28;20036;-66
2022/12/19 10:13:00;;;;;;;2.37;2.23;;;;;;;0.11;75.91;101702.28;5094369;28;20048;-65
2022/12/19 10:15:52;;;;;;;2.20;2.00;;;;;;;0.09;75.17;101708.84;5094033;28;20126;-66
2022/12/19 10:18:43;;;;;;;2.87;2.67;;;;;;;0.10;75.07;101711.44;5093926;28;20047;-66
2022/12/19 10:21:27;;;;;;;0.70;0.70;;;;;;;0.11;75.79;101717.34;5095814;28;20314;-65
2022/12/19 10:24:28;;;;;;;4.57;1.73;;;;;;;0.09;75.25;101718.88;5099341;28;20398;-66
2022/12/19 10:27:14;;;;;;;2.00;1.90;;;;;;;0.05;76.07;101699.34;5107098;28;20095;-66
2022/12/19 10:29:57;;;;;;;1.00;0.98;;;;;;;0.08;75.75;101702.94;5103278;28;20044;-65
2022/12/19 10:32:35;;;;;;;3.00;2.75;;;;;;;0.10;75.84;101700.56;5107991;28;20038;-65
2022/12/19 10:35:14;;;;;;;3.80;3.47;;;;;;;0.12;76.00;101689.00;5108597;28;20068;-66
2022/12/19 10:37:49;;;;;;;9.50;3.10;;;;;;;0.14;75.94;101692.47;5090869;28;20389;-66
2022/12/19 10:40:26;;;;;;;2.58;2.40;;;;;;;0.11;75.87;101697.28;5092331;28;20050;-67
2022/12/19 10:43:00;;;;;;;1.75;1.63;;;;;;;0.09;76.16;101688.75;5093633;28;20052;-66
2022/12/19 10:45:43;;;;;;;2.40;2.20;;;;;;;0.00;76.40;101684.81;5092148;28;20597;-66
2022/12/19 10:48:18;;;;;;;7.68;5.70;;;;;;;0.04;76.44;101685.03;5101134;28;20071;-66
2022/12/19 10:50:59;;;;;;;2.63;2.45;;;;;;;0.10;76.30;101680.47;5113754;28;20047;-67
2022/12/19 10:53:34;;;;;;;2.25;2.08;;;;;;;0.13;76.34;101685.69;5110737;28;20105;-66
2022/12/19 10:56:13;;;;;;;2.15;2.00;;;;;;;0.11;76.70;101677.19;5114085;28;20045;-67
2022/12/19 10:58:43;;;;;;;3.03;2.50;;;;;;;0.11;76.08;101677.19;5108712;28;20090;-66
2022/12/19 11:01:14;;;;;;;1.77;1.67;;;;;;;0.12;76.77;101672.25;5109460;28;20493;-66
2022/12/19 11:03:46;;;;;;;0.70;0.70;;;;;;;0.12;76.54;101673.94;5110685;28;20068;-66
2022/12/19 11:06:43;;;;;;;3.13;2.83;;;;;;;0.21;76.82;101660.41;5096667;28;20169;-67
2022/12/19 11:09:24;;;;;;;10.52;3.85;;;;;;;0.21;77.11;101652.00;5109496;28;20081;-66
2022/12/19 11:12:10;;;;;;;4.20;2.90;;;;;;;0.20;77.06;101660.28;5113617;28;20043;-66
2022/12/19 11:15:13;;;;;;;5.65;5.13;;;;;;;0.11;76.30;101664.63;5110561;28;20046;-67
2022/12/19 11:18:06;;;;;;;2.00;1.90;;;;;;;0.07;76.00;101660.16;5102452;28;20028;-66
2022/12/19 11:20:58;;;;;;;2.42;2.22;;;;;;;0.13;75.76;101651.44;5093435;28;20035;-66
2022/12/19 11:23:53;;;;;;;3.45;2.63;;;;;;;0.10;75.71;101655.38;5093347;28;20041;-66
2022/12/19 11:26:43;;;;;;;4.63;4.25;;;;;;;0.07;75.48;101650.13;5093473;28;20071;-66
2022/12/19 11:29:45;;;;;;;5.43;3.13;;;;;;;0.06;75.44;101640.84;5093153;28;20044;-66
2022/12/19 11:32:36;;;;;;;0.60;0.60;;;;;;;0.06;75.71;101634.19;5096598;28;20132;-67
2022/12/19 11:35:18;;;;;;;1.88;1.70;;;;;;;0.06;75.32;101633.31;5102332;28;20121;-66
2022/12/19 11:37:52;;;;;;;3.55;3.25;;;;;;;0.08;75.82;101631.78;5096324;28;20055;-67
2022/12/19 11:40:35;;;;;;;1.25;1.15;;;;;;;0.05;75.31;101621.53;5097414;28;20052;-66
2022/12/19 11:43:12;;;;;;;3.47;3.17;;;;;;;0.11;75.43;101627.00;5096802;28;20052;-66
2022/12/19 11:46:09;;;;;;;2.28;1.92;;;;;;;0.13;75.45;101616.28;5095759;28;20052;-66
2022/12/19 11:48:45;;;;;;;0.90;0.88;;;;;;;0.14;75.25;101607.13;5096717;28;20462;-67
2022/12/19 11:51:23;;;;;;;1.00;1.00;;;;;;;0.09;75.29;101594.25;5096739;28;20059;-67
2022/12/19 11:54:02;;;;;;;19.70;4.65;;;;;;;0.15;75.08;101598.81;5095929;28;20093;-68
2022/12/19 11:56:32;;;;;;;0.77;0.77;;;;;;;0.16;75.16;101598.06;5103124;28;20056;-67
2022/12/19 11:59:07;;;;;;;0.55;0.55;;;;;;;0.14;74.87;101608.00;5095336;28;20147;-66
2022/12/19 12:01:46;;;;;;;5.07;4.72;;;;;;;0.13;74.85;101611.28;5096878;28;20393;-66